Marton, New Zealand
Current Conditions -  °F | °C
As of 2:30 PM on Monday 24 Nov 2014 (Local Time) from NZWN Reporting Station
Clear Clear  
Wind Chill: 66°   Ceiling: Unl
Heat Index: 66°   Visibility: 6mi
Dew Point: 50°   Wind: 22mph
Humidity: 56%   Direction: 360°N
Pressure: 29.97"   Gusts: NA
Location:  40.08°S, 175.37°E
Report Text: NZWN 240230Z AUTO 36019KT 9999 NCD 19/10 Q1015 NOSIG
Loading
Personal Weather Stations






























Interactive Weather Map New forecast layout! Learn more

10-Day Weather Forecast

Advertisements
Track Severe Weather on mobile